Time;durP1;ratioP1;P1;durP2;ratioP2;P2;SDS_P1;SDS_P2;PMS_P1;PMS_P2;Temp;Humidity;BMP_temperature;BMP_pressure;BME280_temperature;BME280_humidity;BME280_pressure;Samples;Min_cycle;Max_cycle;Signal;HPM_P1;HPM_P2
2022/06/21 00:00:05;;;;;;;;;;;25.70;57.70;25.50;98951.00;;;;337743;28;83533;-89
2022/06/21 00:00:21;;;;;;;;;;;25.70;57.80;25.50;98957.00;;;;338665;28;87207;-89
2022/06/21 00:00:33;;;;;;;;;;;25.70;57.80;25.60;98956.00;;;;340123;28;82606;-89
2022/06/21 00:00:46;;;;;;;;;;;25.70;57.70;25.50;98959.00;;;;337603;28;86688;-89
2022/06/21 00:00:58;;;;;;;;;;;25.70;57.80;25.50;98956.00;;;;344204;28;83214;-89
2022/06/21 00:01:11;;;;;;;;;;;25.70;57.80;25.60;98960.00;;;;347250;28;87343;-90
2022/06/21 00:01:23;;;;;;;;;;;25.70;57.70;25.60;98961.00;;;;338930;28;82557;-89
2022/06/21 00:01:35;;;;;;;;;;;25.70;57.70;25.60;98954.00;;;;345868;28;87313;-89
2022/06/21 00:01:47;;;;;;;;;;;25.70;57.50;25.60;98952.00;;;;347055;28;82288;-89
2022/06/21 00:01:59;;;;;;;;;;;25.70;57.50;25.50;98943.00;;;;345365;28;87575;-89
2022/06/21 00:02:12;;;;;;;;;;;25.70;57.70;25.50;98954.00;;;;339015;28;83431;-89
2022/06/21 00:02:23;;;;;;;;;;;25.70;57.90;25.50;98957.00;;;;338796;28;87907;-89
2022/06/21 00:02:36;;;;;;;;;;;25.70;57.80;25.50;98957.00;;;;337828;28;83430;-89
2022/06/21 00:02:48;;;;;;;;;;;25.70;57.90;25.60;98956.00;;;;336326;28;86573;-89
2022/06/21 00:03:09;;;;;;;;;;;25.70;58.30;25.50;98956.00;;;;339997;28;82566;-90
2022/06/21 00:03:22;;;;;;;;;;;25.70;57.90;25.60;98959.00;;;;342948;28;86404;-89
2022/06/21 00:03:34;;;;;;;;;;;25.70;57.80;25.60;98961.00;;;;340363;28;82525;-90
2022/06/21 00:03:47;;;;;;;;;;;25.70;57.70;25.40;98958.00;;;;336320;28;86274;-89
2022/06/21 00:03:59;;;;;;;;;;;25.70;58.00;25.40;98961.00;;;;340201;28;83324;-89
2022/06/21 00:04:10;;;;;;;;;;;25.70;58.10;25.60;98964.00;;;;345861;28;85986;-90
2022/06/21 00:04:22;;;;;;;;;;;25.70;57.90;25.60;98959.00;;;;345619;28;83618;-90
2022/06/21 00:04:34;;;;;;;;;;;25.60;57.90;25.60;98959.00;;;;345906;28;87234;-89
2022/06/21 00:04:46;;;;;;;;;;;25.70;57.80;25.60;98954.00;;;;339033;28;83436;-89
2022/06/21 00:04:58;;;;;;;;;;;25.70;57.90;25.60;98955.00;;;;340239;28;86126;-90
2022/06/21 00:05:20;;;;;;;;;;;25.70;58.10;25.70;98963.00;;;;340422;28;83445;-89
2022/06/21 00:05:39;;;;;;;;;;;25.70;58.10;25.70;98966.00;;;;337624;28;86769;-89
2022/06/21 00:05:51;;;;;;;;;;;25.70;58.00;25.50;98965.00;;;;339913;28;84203;-89
2022/06/21 00:06:03;;;;;;;;;;;25.70;58.70;25.50;98959.00;;;;341592;28;87546;-89
2022/06/21 00:06:17;;;;;;;;;;;25.60;58.00;25.40;98954.00;;;;343094;28;82268;-89
2022/06/21 00:06:29;;;;;;;;;;;25.60;58.10;25.40;98968.00;;;;340229;28;85866;-89
2022/06/21 00:06:41;;;;;;;;;;;25.60;58.20;25.30;98960.00;;;;341798;28;82357;-89
2022/06/21 00:06:53;;;;;;;;;;;25.60;58.20;25.30;98964.00;;;;339837;28;86148;-89
2022/06/21 00:07:05;;;;;;;;;;;25.60;58.30;25.30;98967.00;;;;342903;28;83366;-88
2022/06/21 00:07:23;;;;;;;;;;;25.60;58.30;25.40;98969.00;;;;345816;27;86464;-89
2022/06/21 00:07:35;;;;;;;;;;;25.60;58.20;25.50;98967.00;;;;341756;28;82474;-89
2022/06/21 00:07:46;;;;;;;;;;;25.60;58.20;25.50;98964.00;;;;337404;28;88344;-89
2022/06/21 00:07:58;;;;;;;;;;;25.60;58.20;25.40;98965.00;;;;339037;28;83375;-89
2022/06/21 00:08:17;;;;;;;;;;;25.60;58.30;25.40;98960.00;;;;340307;28;86053;-89
2022/06/21 00:08:31;;;;;;;;;;;25.50;58.30;25.50;98969.00;;;;338900;28;83422;-89
2022/06/21 00:08:43;;;;;;;;;;;25.50;58.20;25.50;98967.00;;;;338745;28;87132;-90
2022/06/21 00:08:55;;;;;;;;;;;25.50;58.00;25.40;98968.00;;;;340175;28;82519;-89
2022/06/21 00:09:10;;;;;;;;;;;25.50;58.20;25.50;98969.00;;;;338942;28;86028;-89
2022/06/21 00:09:23;;;;;;;;;;;25.50;58.20;25.50;98969.00;;;;340041;28;83508;-89
2022/06/21 00:09:35;;;;;;;;;;;25.60;58.30;25.40;98978.00;;;;340307;28;86421;-89
2022/06/21 00:09:47;;;;;;;;;;;25.60;58.60;25.50;98974.00;;;;340106;28;82593;-89
2022/06/21 00:10:00;;;;;;;;;;;25.60;58.60;25.50;98976.00;;;;346756;28;87268;-89
2022/06/21 00:10:16;;;;;;;;;;;25.50;58.60;25.40;98978.00;;;;346046;28;83390;-90
2022/06/21 00:10:27;;;;;;;;;;;25.50;58.50;25.30;98976.00;;;;340234;28;87126;-89
2022/06/21 00:10:39;;;;;;;;;;;25.50;58.40;25.30;98979.00;;;;341467;28;83430;-89
2022/06/21 00:10:51;;;;;;;;;;;25.50;58.40;25.40;98977.00;;;;340912;28;86537;-89
2022/06/21 00:11:04;;;;;;;;;;;25.50;58.40;25.40;98979.00;;;;341631;28;82583;-89
2022/06/21 00:11:34;;;;;;;;;;;25.50;58.40;25.50;98981.00;;;;345890;28;86936;-89
2022/06/21 00:11:46;;;;;;;;;;;25.50;58.50;25.50;98978.00;;;;345949;28;83343;-90
2022/06/21 00:11:57;;;;;;;;;;;25.50;58.20;25.40;98976.00;;;;338738;28;88683;-90
2022/06/21 00:12:11;;;;;;;;;;;25.50;58.30;25.50;98978.00;;;;340338;28;83491;-89
2022/06/21 00:12:23;;;;;;;;;;;25.50;58.30;25.50;98981.00;;;;340085;28;86418;-89
2022/06/21 00:12:35;;;;;;;;;;;25.50;58.30;25.50;98980.00;;;;339101;28;82282;-89
2022/06/21 00:12:47;;;;;;;;;;;25.50;58.50;25.40;98975.00;;;;340324;28;86364;-89
2022/06/21 00:13:00;;;;;;;;;;;25.50;58.60;25.40;98979.00;;;;339733;28;83431;-89
2022/06/21 00:13:17;;;;;;;;;;;25.50;58.40;25.40;98981.00;;;;345558;28;86432;-90
2022/06/21 00:13:30;;;;;;;;;;;25.50;58.40;25.40;98983.00;;;;340345;28;82332;-89
2022/06/21 00:13:42;;;;;;;;;;;25.50;58.70;25.40;98976.00;;;;340151;28;85997;-89
2022/06/21 00:13:54;;;;;;;;;;;25.50;58.60;25.40;98977.00;;;;340216;28;83536;-89
2022/06/21 00:14:06;;;;;;;;;;;25.50;58.60;25.30;98980.00;;;;337415;28;86985;-89
2022/06/21 00:14:18;;;;;;;;;;;25.50;58.60;25.40;98979.00;;;;338890;28;83278;-89
2022/06/21 00:14:30;;;;;;;;;;;25.50;58.70;25.40;98977.00;;;;340261;28;86252;-89
2022/06/21 00:14:42;;;;;;;;;;;25.50;58.50;25.40;98977.00;;;;337827;28;82325;-89
2022/06/21 00:14:53;;;;;;;;;;;25.50;58.60;25.40;98972.00;;;;338886;28;87378;-90
2022/06/21 00:15:06;;;;;;;;;;;25.50;58.80;25.30;98984.00;;;;338965;28;82530;-89
2022/06/21 00:15:18;;;;;;;;;;;25.50;58.90;25.50;98985.00;;;;338728;28;86587;-90
2022/06/21 00:15:30;;;;;;;;;;;25.50;58.80;25.40;98986.00;;;;340251;28;83532;-89
2022/06/21 00:15:42;;;;;;;;;;;25.50;58.80;25.30;98988.00;;;;341511;28;86326;-89
2022/06/21 00:15:56;;;;;;;;;;;25.50;59.00;25.30;98983.00;;;;343882;28;82483;-90
2022/06/21 00:16:11;;;;;;;;;;;25.50;58.90;25.30;98980.00;;;;347255;28;87452;-89
2022/06/21 00:16:24;;;;;;;;;;;25.50;59.10;25.30;98987.00;;;;342935;27;83582;-89
2022/06/21 00:16:36;;;;;;;;;;;25.50;58.90;25.20;98984.00;;;;340235;28;87453;-89
2022/06/21 00:16:48;;;;;;;;;;;25.50;59.00;25.30;98982.00;;;;337773;28;82412;-89
2022/06/21 00:17:00;;;;;;;;;;;25.50;59.10;25.40;98983.00;;;;338858;28;83744;-89
2022/06/21 00:17:16;;;;;;;;;;;25.50;58.90;25.50;98987.00;;;;339093;28;83387;-89
2022/06/21 00:17:28;;;;;;;;;;;25.50;58.70;25.40;98985.00;;;;337548;28;86166;-89
2022/06/21 00:17:41;;;;;;;;;;;25.50;58.80;25.30;98981.00;;;;339043;28;83231;-89
2022/06/21 00:17:53;;;;;;;;;;;25.50;58.80;25.30;98976.00;;;;337496;28;87717;-89
2022/06/21 00:18:05;;;;;;;;;;;25.50;58.90;25.30;98980.00;;;;339034;28;83490;-89
2022/06/21 00:18:18;;;;;;;;;;;25.50;58.90;25.30;98983.00;;;;338681;28;86326;-89
2022/06/21 00:18:31;;;;;;;;;;;25.50;59.00;25.40;98987.00;;;;337620;28;83449;-89
2022/06/21 00:18:44;;;;;;;;;;;25.50;58.80;25.50;98975.00;;;;337102;28;86782;-89
2022/06/21 00:18:55;;;;;;;;;;;25.50;58.90;25.40;98984.00;;;;347781;27;83478;-89
2022/06/21 00:19:12;;;;;;;;;;;25.50;59.00;25.30;98976.00;;;;341053;28;86476;-89
2022/06/21 00:19:24;;;;;;;;;;;25.50;58.90;25.40;98980.00;;;;338974;28;83337;-89
2022/06/21 00:19:37;;;;;;;;;;;25.50;59.00;25.40;98984.00;;;;338927;28;86551;-89
2022/06/21 00:19:49;;;;;;;;;;;25.50;59.20;25.30;98982.00;;;;339026;28;83361;-89
2022/06/21 00:20:01;;;;;;;;;;;25.50;59.10;25.40;98979.00;;;;337562;28;87321;-89
2022/06/21 00:20:13;;;;;;;;;;;25.50;58.90;25.40;98986.00;;;;340355;28;83356;-89
2022/06/21 00:20:25;;;;;;;;;;;25.50;58.80;25.30;98983.00;;;;337424;28;86233;-89
2022/06/21 00:20:37;;;;;;;;;;;25.50;59.20;25.30;98983.00;;;;341796;28;83377;-89
2022/06/21 00:20:49;;;;;;;;;;;25.50;59.10;25.30;98982.00;;;;338613;28;90960;-89
2022/06/21 00:21:00;;;;;;;;;;;25.50;59.00;25.30;98980.00;;;;337632;28;82985;-89
2022/06/21 00:21:14;;;;;;;;;;;25.50;59.50;25.30;98985.00;;;;338578;28;91369;-89
2022/06/21 00:21:35;;;;;;;;;;;25.50;59.10;25.40;98989.00;;;;338910;28;83360;-89
2022/06/21 00:21:47;;;;;;;;;;;25.50;59.00;25.40;98982.00;;;;338642;28;93128;-89
2022/06/21 00:21:59;;;;;;;;;;;25.50;59.20;25.40;98983.00;;;;347101;27;83409;-89
2022/06/21 00:22:15;;;;;;;;;;;25.50;59.10;25.20;98995.00;;;;340250;28;88939;-90
2022/06/21 00:22:27;;;;;;;;;;;25.50;59.30;25.20;98990.00;;;;337931;28;82392;-89
2022/06/21 00:22:40;;;;;;;;;;;25.50;59.40;25.30;98987.00;;;;340110;28;91118;-89
2022/06/21 00:22:51;;;;;;;;;;;25.40;59.10;25.30;98987.00;;;;341066;28;83525;-89
2022/06/21 00:23:03;;;;;;;;;;;25.50;59.20;25.30;98988.00;;;;340087;28;90288;-89
2022/06/21 00:23:24;;;;;;;;;;;25.40;59.20;25.20;98989.00;;;;337908;28;82559;-89
2022/06/21 00:23:36;;;;;;;;;;;25.50;59.40;25.20;98989.00;;;;338708;28;92250;-89
2022/06/21 00:23:49;;;;;;;;;;;25.40;59.50;25.20;98987.00;;;;337704;28;83352;-89
2022/06/21 00:24:01;;;;;;;;;;;25.40;59.40;25.10;98983.00;;;;338634;28;93249;-89
2022/06/21 00:24:13;;;;;;;;;;;25.40;59.50;25.10;98981.00;;;;337721;28;83502;-89
2022/06/21 00:24:25;;;;;;;;;;;25.40;59.60;25.10;98984.00;;;;338749;28;89575;-89
2022/06/21 00:24:37;;;;;;;;;;;25.40;59.70;25.10;98982.00;;;;340562;28;82494;-89
2022/06/21 00:24:49;;;;;;;;;;;25.40;59.60;25.00;98986.00;;;;342074;28;92389;-90
2022/06/21 00:25:02;;;;;;;;;;;25.40;59.70;25.10;98983.00;;;;341344;28;83283;-89
2022/06/21 00:25:19;;;;;;;;;;;25.30;59.70;25.10;98978.00;;;;344079;28;92260;-89
2022/06/21 00:25:31;;;;;;;;;;;25.40;59.70;25.10;98986.00;;;;337916;28;83425;-89
2022/06/21 00:25:46;;;;;;;;;;;25.40;59.70;25.20;98976.00;;;;338520;28;90676;-90
2022/06/21 00:25:58;;;;;;;;;;;25.30;59.50;25.20;98980.00;;;;339257;28;83383;-89
2022/06/21 00:26:12;;;;;;;;;;;25.40;59.50;25.20;98979.00;;;;337376;28;92018;-89
2022/06/21 00:26:25;;;;;;;;;;;25.30;59.60;25.10;98979.00;;;;337871;28;82707;-89
2022/06/21 00:26:36;;;;;;;;;;;25.30;59.60;25.30;98982.00;;;;339874;28;90442;-89
2022/06/21 00:26:48;;;;;;;;;;;25.30;59.40;25.20;98983.00;;;;339243;28;83390;-89
2022/06/21 00:27:01;;;;;;;;;;;25.40;59.60;25.30;98982.00;;;;337437;28;89193;-90
2022/06/21 00:27:13;;;;;;;;;;;25.40;59.50;25.40;98977.00;;;;337855;28;83343;-89
2022/06/21 00:27:25;;;;;;;;;;;25.40;59.60;25.40;98973.00;;;;336114;28;91164;-89
2022/06/21 00:27:37;;;;;;;;;;;25.30;59.60;25.30;98986.00;;;;337912;28;83281;-89
2022/06/21 00:27:49;;;;;;;;;;;25.40;59.80;25.20;98980.00;;;;339860;28;91996;-89
2022/06/21 00:28:01;;;;;;;;;;;25.40;59.70;25.20;98985.00;;;;341619;28;82608;-89
2022/06/21 00:28:13;;;;;;;;;;;25.40;59.90;25.30;98984.00;;;;336219;28;89085;-89
2022/06/21 00:28:26;;;;;;;;;;;25.40;59.60;25.30;98987.00;;;;335185;29;83428;-89
2022/06/21 00:28:38;;;;;;;;;;;25.40;59.70;25.20;98983.00;;;;337359;28;89103;-89
2022/06/21 00:28:50;;;;;;;;;;;25.40;60.00;25.30;98978.00;;;;339767;28;83534;-90
2022/06/21 00:29:02;;;;;;;;;;;25.30;59.60;25.20;98978.00;;;;341348;27;92269;-89
2022/06/21 00:29:14;;;;;;;;;;;25.40;59.80;25.20;98988.00;;;;346222;28;83199;-89
2022/06/21 00:29:25;;;;;;;;;;;25.40;59.90;25.10;98979.00;;;;347081;28;91226;-89
2022/06/21 00:29:37;;;;;;;;;;;25.30;59.90;25.20;98985.00;;;;339379;28;82580;-89
2022/06/21 00:29:49;;;;;;;;;;;25.40;59.80;25.30;98987.00;;;;338805;28;91327;-89
2022/06/21 00:30:01;;;;;;;;;;;25.40;59.70;25.20;98979.00;;;;340319;28;83417;-89
2022/06/21 00:30:13;;;;;;;;;;;25.30;59.80;25.20;98982.00;;;;336112;28;92770;-89
2022/06/21 00:30:27;;;;;;;;;;;25.40;59.80;25.20;98981.00;;;;338961;28;83571;-89
2022/06/21 00:30:39;;;;;;;;;;;25.40;59.90;25.20;98987.00;;;;338528;28;90718;-89
2022/06/21 00:30:52;;;;;;;;;;;25.40;60.00;25.20;98989.00;;;;341246;28;83556;-89
2022/06/21 00:31:06;;;;;;;;;;;25.30;60.00;25.10;98978.00;;;;343840;27;90305;-89
2022/06/21 00:31:19;;;;;;;;;;;25.40;60.00;25.10;98978.00;;;;336509;28;83124;-89
2022/06/21 00:31:34;;;;;;;;;;;25.40;60.00;25.20;98987.00;;;;337341;28;91535;-90
2022/06/21 00:31:47;;;;;;;;;;;25.30;60.00;25.20;98983.00;;;;337749;28;83439;-89
2022/06/21 00:31:59;;;;;;;;;;;25.30;59.70;25.30;98982.00;;;;338913;28;88764;-89
2022/06/21 00:32:16;;;;;;;;;;;25.30;59.70;25.30;98978.00;;;;337886;28;82534;-89
2022/06/21 00:32:28;;;;;;;;;;;25.40;59.80;25.20;98983.00;;;;340011;28;92882;-89
2022/06/21 00:32:41;;;;;;;;;;;25.30;60.00;25.20;98982.00;;;;339231;28;82535;-89
2022/06/21 00:32:53;;;;;;;;;;;25.40;60.10;25.10;98980.00;;;;336135;28;91661;-89
2022/06/21 00:33:08;;;;;;;;;;;25.40;60.00;25.20;98991.00;;;;337714;28;83476;-89
2022/06/21 00:33:24;;;;;;;;;;;25.40;60.10;25.10;98991.00;;;;337451;28;91479;-90
2022/06/21 00:33:36;;;;;;;;;;;25.30;60.20;25.00;98989.00;;;;339201;28;83350;-89
2022/06/21 00:33:47;;;;;;;;;;;25.30;60.40;25.10;98988.00;;;;339743;28;91524;-89
2022/06/21 00:34:04;;;;;;;;;;;25.30;60.30;25.10;98986.00;;;;343207;28;83580;-90
2022/06/21 00:34:17;;;;;;;;;;;25.30;60.20;25.10;98984.00;;;;338401;28;90637;-89
2022/06/21 00:34:29;;;;;;;;;;;25.30;60.30;25.10;98984.00;;;;339114;28;83458;-89
2022/06/21 00:34:41;;;;;;;;;;;25.30;60.20;25.10;98981.00;;;;340065;28;92368;-89
2022/06/21 00:34:53;;;;;;;;;;;25.30;60.20;25.20;98989.00;;;;340220;28;83487;-89
2022/06/21 00:35:09;;;;;;;;;;;25.30;60.20;25.10;98985.00;;;;347049;28;91597;-89
2022/06/21 00:35:22;;;;;;;;;;;25.30;60.40;25.10;98990.00;;;;346119;28;83341;-90
2022/06/21 00:35:33;;;;;;;;;;;25.30;60.00;25.10;98989.00;;;;340151;28;91128;-89
2022/06/21 00:35:47;;;;;;;;;;;25.30;60.00;25.10;98987.00;;;;337798;28;83349;-90
2022/06/21 00:36:00;;;;;;;;;;;25.30;60.40;25.10;98985.00;;;;338804;28;91848;-89
2022/06/21 00:36:25;;;;;;;;;;;25.30;60.40;25.10;98986.00;;;;339211;28;83824;-89
2022/06/21 00:36:37;;;;;;;;;;;25.30;60.40;25.00;98984.00;;;;341584;28;90091;-89
2022/06/21 00:36:49;;;;;;;;;;;25.30;60.60;25.10;98984.00;;;;338962;28;82611;-89
2022/06/21 00:37:01;;;;;;;;;;;25.30;60.50;25.10;98995.00;;;;338513;28;92318;-90
2022/06/21 00:37:19;;;;;;;;;;;25.30;60.60;25.10;98995.00;;;;337919;28;83240;-89
2022/06/21 00:37:31;;;;;;;;;;;25.30;60.40;25.20;98987.00;;;;337620;28;90361;-89
2022/06/21 00:37:43;;;;;;;;;;;25.30;60.50;25.10;98991.00;;;;340518;28;83316;-89
2022/06/21 00:37:54;;;;;;;;;;;25.20;60.50;25.20;98993.00;;;;345053;28;90490;-89
2022/06/21 00:38:11;;;;;;;;;;;25.20;60.40;25.20;98995.00;;;;347618;28;82516;-89
2022/06/21 00:38:27;;;;;;;;;;;25.20;60.40;25.10;98996.00;;;;346837;27;90518;-89
2022/06/21 00:38:39;;;;;;;;;;;25.30;60.60;25.10;99000.00;;;;346239;28;83382;-89
2022/06/21 00:38:52;;;;;;;;;;;25.30;60.60;25.10;99001.00;;;;344377;28;92513;-89
2022/06/21 00:39:04;;;;;;;;;;;25.30;60.60;25.10;99004.00;;;;345978;28;83327;-89
2022/06/21 00:39:17;;;;;;;;;;;25.30;60.60;25.10;99001.00;;;;345436;28;92424;-89
2022/06/21 00:39:29;;;;;;;;;;;25.30;60.50;25.00;99003.00;;;;346227;28;83495;-90
2022/06/21 00:39:41;;;;;;;;;;;25.20;60.60;25.00;99004.00;;;;344338;28;90344;-89
2022/06/21 00:39:53;;;;;;;;;;;25.20;60.70;25.00;99004.00;;;;342869;28;83588;-89
2022/06/21 00:40:19;;;;;;;;;;;25.20;60.70;25.00;99006.00;;;;344544;28;90538;-89
2022/06/21 00:40:32;;;;;;;;;;;25.20;60.70;25.10;99015.00;;;;340561;28;83464;-90
2022/06/21 00:40:43;;;;;;;;;;;25.20;60.40;25.00;99010.00;;;;338826;28;91645;-90
2022/06/21 00:40:56;;;;;;;;;;;25.20;60.70;25.10;99007.00;;;;340451;28;83440;-89
2022/06/21 00:41:10;;;;;;;;;;;25.20;60.50;25.10;99002.00;;;;337455;28;91027;-89
2022/06/21 00:41:37;;;;;;;;;;;25.20;60.50;25.00;99010.00;;;;340497;28;83394;-89
2022/06/21 00:41:57;;;;;;;;;;;25.20;60.70;25.00;99011.00;;;;340099;28;91460;-89
2022/06/21 00:42:29;;;;;;;;;;;25.20;61.10;25.00;99007.00;;;;338081;28;83482;-89
2022/06/21 00:42:41;;;;;;;;;;;25.20;60.90;25.10;99012.00;;;;341508;28;90498;-89
2022/06/21 00:43:03;;;;;;;;;;;25.20;60.80;25.20;99016.00;;;;343658;28;82637;-89
2022/06/21 00:43:18;;;;;;;;;;;25.20;60.80;25.10;99019.00;;;;336389;28;89303;-89
2022/06/21 00:43:32;;;;;;;;;;;25.20;60.90;25.10;99017.00;;;;339105;28;83178;-89
2022/06/21 00:43:48;;;;;;;;;;;25.20;60.80;25.10;99014.00;;;;338697;28;90531;-90
2022/06/21 00:44:00;;;;;;;;;;;25.20;60.90;25.20;99016.00;;;;337828;28;83462;-89
2022/06/21 00:44:14;;;;;;;;;;;25.20;60.80;25.10;99013.00;;;;337493;28;91905;-89
2022/06/21 00:44:28;;;;;;;;;;;25.20;60.90;25.10;99016.00;;;;339156;28;83481;-89
2022/06/21 00:44:43;;;;;;;;;;;25.20;60.70;25.10;99016.00;;;;338705;28;91956;-89
2022/06/21 00:45:06;;;;;;;;;;;25.20;60.90;25.00;99019.00;;;;337963;28;82467;-89
2022/06/21 00:45:34;;;;;;;;;;;25.20;61.00;25.10;99018.00;;;;338663;28;92210;-89
2022/06/21 00:45:47;;;;;;;;;;;25.20;60.90;25.00;99013.00;;;;339428;28;83956;-89
2022/06/21 00:45:59;;;;;;;;;;;25.20;60.80;25.00;99015.00;;;;337512;28;92207;-89
2022/06/21 00:46:31;;;;;;;;;;;25.20;61.00;25.00;99008.00;;;;339205;28;83309;-89
2022/06/21 00:46:46;;;;;;;;;;;25.20;61.10;25.00;99010.00;;;;338623;28;91326;-89
2022/06/21 00:47:03;;;;;;;;;;;25.20;61.00;25.00;99014.00;;;;340614;28;83293;-89
2022/06/21 00:47:20;;;;;;;;;;;25.20;61.30;25.10;99012.00;;;;338724;28;92558;-89
2022/06/21 00:47:48;;;;;;;;;;;25.20;61.20;25.10;99014.00;;;;340485;28;83539;-90
2022/06/21 00:48:21;;;;;;;;;;;25.20;61.10;25.10;99016.00;;;;338732;28;91882;-89
2022/06/21 00:48:40;;;;;;;;;;;25.20;60.90;25.00;99009.00;;;;344707;28;82700;-89
2022/06/21 00:48:52;;;;;;;;;;;25.20;61.30;25.00;99002.00;;;;344878;28;90622;-90
2022/06/21 00:49:09;;;;;;;;;;;25.10;61.20;25.00;99006.00;;;;344535;28;83467;-90
2022/06/21 00:49:26;;;;;;;;;;;25.10;61.00;25.10;99001.00;;;;343870;28;91129;-90
2022/06/21 00:49:54;;;;;;;;;;;25.20;61.00;25.00;99001.00;;;;346048;28;83465;-89
2022/06/21 00:50:35;;;;;;;;;;;25.20;60.90;25.10;98996.00;;;;344111;28;90566;-89
2022/06/21 00:50:51;;;;;;;;;;;25.10;61.10;25.00;98993.00;;;;343976;28;82603;-89
2022/06/21 00:51:18;;;;;;;;;;;25.20;61.40;24.90;98988.00;;;;342808;28;89728;-90
2022/06/21 00:51:38;;;;;;;;;;;25.10;61.40;25.00;98995.00;;;;344721;28;83227;-90
2022/06/21 00:51:51;;;;;;;;;;;25.10;61.30;24.90;98995.00;;;;344864;28;92946;-90
2022/06/21 00:52:06;;;;;;;;;;;25.10;61.60;24.90;98988.00;;;;344424;28;83361;-90
2022/06/21 00:52:21;;;;;;;;;;;25.10;61.50;24.90;98989.00;;;;343270;28;90828;-90
2022/06/21 00:52:40;;;;;;;;;;;25.10;61.70;24.90;98988.00;;;;343281;28;82635;-90
2022/06/21 00:52:57;;;;;;;;;;;25.10;61.70;24.90;98985.00;;;;342871;28;90313;-90
2022/06/21 00:53:15;;;;;;;;;;;25.10;61.50;25.00;98999.00;;;;344513;28;83437;-90
2022/06/21 00:53:32;;;;;;;;;;;25.10;61.60;24.90;98990.00;;;;344251;28;91511;-90
2022/06/21 00:53:49;;;;;;;;;;;25.10;61.30;25.00;98992.00;;;;344708;28;82557;-90
2022/06/21 00:54:23;;;;;;;;;;;25.10;61.40;25.00;98988.00;;;;342954;28;90140;-90
2022/06/21 00:54:54;;;;;;;;;;;25.10;61.60;25.10;98994.00;;;;344739;28;83561;-90
2022/06/21 00:55:14;;;;;;;;;;;25.10;61.50;25.10;98992.00;;;;343909;28;91636;-89
2022/06/21 00:55:45;;;;;;;;;;;25.10;61.20;25.10;98993.00;;;;346104;28;82587;-90
2022/06/21 00:56:00;;;;;;;;;;;25.10;61.30;25.00;98993.00;;;;345712;28;90475;-90
2022/06/21 00:56:17;;;;;;;;;;;25.10;61.40;25.00;98986.00;;;;343436;28;83428;-90
2022/06/21 00:56:30;;;;;;;;;;;25.10;61.50;24.90;98992.00;;;;341629;28;89112;-89
2022/06/21 00:56:54;;;;;;;;;;;25.10;61.60;25.10;99001.00;;;;344825;28;83409;-90
2022/06/21 00:57:12;;;;;;;;;;;25.10;61.30;25.00;98997.00;;;;345291;28;90134;-89
2022/06/21 00:57:27;;;;;;;;;;;25.10;61.60;25.00;99000.00;;;;343172;28;83544;-90
2022/06/21 00:57:49;;;;;;;;;;;25.10;61.60;25.00;98994.00;;;;344298;28;90261;-90
2022/06/21 00:58:00;;;;;;;;;;;25.10;61.70;25.10;99010.00;;;;343592;28;83428;-89
2022/06/21 00:58:14;;;;;;;;;;;25.10;61.30;25.00;99002.00;;;;344315;28;90065;-90
2022/06/21 00:58:26;;;;;;;;;;;25.10;61.30;24.90;98993.00;;;;346070;28;83552;-90
2022/06/21 00:58:38;;;;;;;;;;;25.10;61.70;25.00;99000.00;;;;342979;28;90309;-90
2022/06/21 00:58:49;;;;;;;;;;;25.10;61.60;24.90;98998.00;;;;344717;28;82493;-90
2022/06/21 00:59:33;;;;;;;;;;;25.10;61.70;25.00;99000.00;;;;344276;28;88167;-89
2022/06/21 00:59:47;;;;;;;;;;;25.10;61.70;24.90;98996.00;;;;342057;28;83419;-90
2022/06/21 01:00:22;;;;;;;;;;;25.10;61.80;24.90;98996.00;;;;341518;28;91470;-90
2022/06/21 01:00:37;;;;;;;;;;;25.10;62.00;25.00;99000.00;;;;341598;28;82623;-90
2022/06/21 01:01:01;;;;;;;;;;;25.10;62.10;25.00;98995.00;;;;341991;28;90251;-90
2022/06/21 01:01:24;;;;;;;;;;;25.10;61.80;25.10;98996.00;;;;343354;28;83416;-90
2022/06/21 01:01:36;;;;;;;;;;;25.10;61.60;25.00;99004.00;;;;340313;28;90456;-90
2022/06/21 01:01:48;;;;;;;;;;;25.10;62.00;25.00;98992.00;;;;339277;28;83581;-90
2022/06/21 01:02:06;;;;;;;;;;;25.10;61.70;25.10;98999.00;;;;338981;28;89144;-90
2022/06/21 01:02:26;;;;;;;;;;;25.10;61.60;25.00;98989.00;;;;343291;28;83506;-90
2022/06/21 01:02:38;;;;;;;;;;;25.10;61.80;25.10;98989.00;;;;340089;28;90468;-90
2022/06/21 01:02:50;;;;;;;;;;;25.10;61.80;25.10;98995.00;;;;339407;28;83172;-89
2022/06/21 01:03:06;;;;;;;;;;;25.10;61.70;25.10;98992.00;;;;341344;28;89684;-90
2022/06/21 01:03:20;;;;;;;;;;;25.10;61.90;25.10;98994.00;;;;339396;28;83293;-90
2022/06/21 01:03:53;;;;;;;;;;;25.10;61.70;25.20;98992.00;;;;338761;28;89620;-89
2022/06/21 01:04:30;;;;;;;;;;;25.10;62.10;25.00;98986.00;;;;340466;28;83606;-90
2022/06/21 01:04:45;;;;;;;;;;;25.10;62.10;25.00;98997.00;;;;340024;28;91502;-89
2022/06/21 01:04:57;;;;;;;;;;;25.10;61.60;25.00;98992.00;;;;337890;28;83541;-90
2022/06/21 01:05:09;;;;;;;;;;;25.10;61.80;25.00;98993.00;;;;342736;28;91012;-90
2022/06/21 01:05:22;;;;;;;;;;;25.10;61.80;25.00;98989.00;;;;339349;28;83405;-89
2022/06/21 01:05:37;;;;;;;;;;;25.10;61.90;25.10;98990.00;;;;340079;28;89570;-90
2022/06/21 01:05:48;;;;;;;;;;;25.10;61.80;25.00;98991.00;;;;343423;28;82569;-90
2022/06/21 01:06:06;;;;;;;;;;;25.10;61.90;24.90;98985.00;;;;341645;28;91155;-90
2022/06/21 01:06:35;;;;;;;;;;;25.10;62.10;25.00;98988.00;;;;341913;28;83457;-90
2022/06/21 01:06:49;;;;;;;;;;;25.10;62.00;24.90;98989.00;;;;341352;28;91875;-89
2022/06/21 01:07:02;;;;;;;;;;;25.10;62.00;24.90;98985.00;;;;341853;28;83371;-89
2022/06/21 01:07:14;;;;;;;;;;;25.10;62.20;24.90;98997.00;;;;340261;28;93374;-90
2022/06/21 01:07:27;;;;;;;;;;;25.10;62.10;24.90;98995.00;;;;341861;28;83364;-90
2022/06/21 01:07:39;;;;;;;;;;;25.10;62.10;25.00;98997.00;;;;341423;28;90786;-90
2022/06/21 01:07:51;;;;;;;;;;;25.10;61.90;25.00;98991.00;;;;342307;28;83626;-90
2022/06/21 01:08:03;;;;;;;;;;;25.10;61.90;25.00;98995.00;;;;341573;28;90968;-90
2022/06/21 01:08:24;;;;;;;;;;;25.10;61.70;25.10;98998.00;;;;340748;28;83431;-90
2022/06/21 01:08:38;;;;;;;;;;;25.10;61.80;25.00;98995.00;;;;340283;28;90083;-90
2022/06/21 01:08:53;;;;;;;;;;;25.10;62.10;25.00;99000.00;;;;340625;28;83484;-90
2022/06/21 01:09:12;;;;;;;;;;;25.10;62.00;25.00;99009.00;;;;341511;28;91981;-89
2022/06/21 01:09:38;;;;;;;;;;;25.10;62.00;25.00;99006.00;;;;340579;28;83484;-90
2022/06/21 01:09:52;;;;;;;;;;;25.10;62.10;24.90;99010.00;;;;339877;28;91406;-90
2022/06/21 01:10:09;;;;;;;;;;;25.10;62.20;24.90;99007.00;;;;339187;28;83459;-90
2022/06/21 01:10:23;;;;;;;;;;;25.10;62.20;25.00;99007.00;;;;339263;28;90241;-90
2022/06/21 01:10:34;;;;;;;;;;;25.10;61.90;24.90;99005.00;;;;340627;28;83428;-89
2022/06/21 01:10:48;;;;;;;;;;;25.10;61.90;24.90;99005.00;;;;340185;28;89459;-90
2022/06/21 01:11:05;;;;;;;;;;;25.00;61.90;25.00;99006.00;;;;341734;28;84842;-90
2022/06/21 01:11:21;;;;;;;;;;;25.00;62.10;24.90;99013.00;;;;341592;28;92336;-90
2022/06/21 01:11:48;;;;;;;;;;;25.10;62.30;25.00;99013.00;;;;340748;28;83434;-90
2022/06/21 01:12:33;;;;;;;;;;;25.10;62.20;24.90;99016.00;;;;341438;28;89398;-90
2022/06/21 01:12:54;;;;;;;;;;;25.10;62.30;25.00;99016.00;;;;338073;28;82503;-89
2022/06/21 01:13:11;;;;;;;;;;;25.10;62.50;24.90;99014.00;;;;335807;28;91482;-90
2022/06/21 01:13:25;;;;;;;;;;;25.10;62.30;24.90;99019.00;;;;336652;28;82523;-90
2022/06/21 01:13:39;;;;;;;;;;;25.10;62.40;24.90;99015.00;;;;337560;28;90438;-90
2022/06/21 01:13:52;;;;;;;;;;;25.10;62.50;24.90;99006.00;;;;336710;28;82733;-90
2022/06/21 01:14:04;;;;;;;;;;;25.00;62.40;24.90;99014.00;;;;336206;28;92039;-90
2022/06/21 01:14:17;;;;;;;;;;;25.00;62.40;24.90;99013.00;;;;337979;28;83458;-90
2022/06/21 01:14:30;;;;;;;;;;;25.10;62.40;25.00;99015.00;;;;334879;29;91250;-90
2022/06/21 01:14:50;;;;;;;;;;;25.00;62.10;24.90;99011.00;;;;336715;28;82459;-90